sensor_id;sensor_type;location;lat;lon;timestamp;P1;durP1;ratioP1;P2;durP2;ratioP2
59406;SDS011;45208;32.616;-115.472;2022-07-22T00:00:55;9.38;;;2.28;;
59406;SDS011;45208;32.616;-115.472;2022-07-22T00:03:22;9.02;;;1.88;;
59406;SDS011;45208;32.616;-115.472;2022-07-22T00:05:48;11.55;;;2.00;;
59406;SDS011;45208;32.616;-115.472;2022-07-22T00:08:17;9.18;;;1.60;;
59406;SDS011;45208;32.616;-115.472;2022-07-22T00:10:45;12.75;;;2.08;;
59406;SDS011;45208;32.616;-115.472;2022-07-22T00:13:12;10.77;;;2.47;;
59406;SDS011;45208;32.616;-115.472;2022-07-22T00:15:39;11.73;;;2.05;;
59406;SDS011;45208;32.616;-115.472;2022-07-22T00:18:06;9.65;;;1.70;;
59406;SDS011;45208;32.616;-115.472;2022-07-22T00:20:33;9.52;;;1.77;;
59406;SDS011;45208;32.616;-115.472;2022-07-22T00:23:00;4.80;;;1.65;;
59406;SDS011;45208;32.616;-115.472;2022-07-22T00:25:27;11.18;;;2.08;;
59406;SDS011;45208;32.616;-115.472;2022-07-22T00:27:54;9.95;;;1.88;;
59406;SDS011;45208;32.616;-115.472;2022-07-22T00:30:21;5.53;;;1.75;;
59406;SDS011;45208;32.616;-115.472;2022-07-22T00:32:48;11.57;;;1.88;;
59406;SDS011;45208;32.616;-115.472;2022-07-22T00:35:17;9.00;;;2.10;;
59406;SDS011;45208;32.616;-115.472;2022-07-22T00:37:45;7.63;;;1.92;;
59406;SDS011;45208;32.616;-115.472;2022-07-22T00:40:13;10.18;;;2.10;;
59406;SDS011;45208;32.616;-115.472;2022-07-22T00:42:39;6.82;;;2.47;;
59406;SDS011;45208;32.616;-115.472;2022-07-22T00:45:07;12.13;;;3.25;;
59406;SDS011;45208;32.616;-115.472;2022-07-22T00:47:34;8.95;;;2.20;;
59406;SDS011;45208;32.616;-115.472;2022-07-22T00:50:01;6.40;;;1.67;;
59406;SDS011;45208;32.616;-115.472;2022-07-22T00:52:29;10.43;;;2.22;;
59406;SDS011;45208;32.616;-115.472;2022-07-22T00:54:58;7.97;;;2.05;;
59406;SDS011;45208;32.616;-115.472;2022-07-22T00:57:26;14.60;;;2.10;;
59406;SDS011;45208;32.616;-115.472;2022-07-22T00:59:53;11.65;;;2.33;;
59406;SDS011;45208;32.616;-115.472;2022-07-22T01:02:20;12.82;;;2.72;;
59406;SDS011;45208;32.616;-115.472;2022-07-22T01:04:47;10.95;;;2.70;;
59406;SDS011;45208;32.616;-115.472;2022-07-22T01:07:17;11.00;;;2.30;;
59406;SDS011;45208;32.616;-115.472;2022-07-22T01:09:44;16.58;;;2.45;;
59406;SDS011;45208;32.616;-115.472;2022-07-22T01:12:12;11.45;;;2.45;;
59406;SDS011;45208;32.616;-115.472;2022-07-22T01:14:39;17.27;;;2.88;;
59406;SDS011;45208;32.616;-115.472;2022-07-22T01:17:06;9.15;;;2.70;;
59406;SDS011;45208;32.616;-115.472;2022-07-22T01:19:34;13.38;;;2.85;;
59406;SDS011;45208;32.616;-115.472;2022-07-22T01:22:03;14.75;;;3.00;;
59406;SDS011;45208;32.616;-115.472;2022-07-22T01:24:30;10.20;;;2.30;;
59406;SDS011;45208;32.616;-115.472;2022-07-22T01:26:58;16.48;;;2.80;;
59406;SDS011;45208;32.616;-115.472;2022-07-22T01:29:25;18.15;;;2.72;;
59406;SDS011;45208;32.616;-115.472;2022-07-22T01:31:52;13.15;;;2.75;;
59406;SDS011;45208;32.616;-115.472;2022-07-22T01:34:19;20.25;;;2.83;;
59406;SDS011;45208;32.616;-115.472;2022-07-22T01:36:46;18.50;;;3.20;;
59406;SDS011;45208;32.616;-115.472;2022-07-22T01:39:12;14.00;;;2.97;;
59406;SDS011;45208;32.616;-115.472;2022-07-22T01:41:39;14.50;;;3.20;;
59406;SDS011;45208;32.616;-115.472;2022-07-22T01:44:10;21.33;;;3.10;;
59406;SDS011;45208;32.616;-115.472;2022-07-22T01:46:37;19.05;;;3.00;;
59406;SDS011;45208;32.616;-115.472;2022-07-22T01:49:04;13.35;;;2.53;;
59406;SDS011;45208;32.616;-115.472;2022-07-22T01:51:36;17.13;;;2.63;;
59406;SDS011;45208;32.616;-115.472;2022-07-22T01:54:03;12.35;;;2.47;;
59406;SDS011;45208;32.616;-115.472;2022-07-22T01:56:31;9.75;;;2.60;;
59406;SDS011;45208;32.616;-115.472;2022-07-22T01:58:59;23.25;;;2.92;;
59406;SDS011;45208;32.616;-115.472;2022-07-22T02:01:27;16.02;;;2.40;;
59406;SDS011;45208;32.616;-115.472;2022-07-22T02:03:54;14.38;;;2.53;;
59406;SDS011;45208;32.616;-115.472;2022-07-22T02:06:21;19.58;;;2.83;;
59406;SDS011;45208;32.616;-115.472;2022-07-22T02:08:50;17.95;;;3.05;;
59406;SDS011;45208;32.616;-115.472;2022-07-22T02:11:39;18.27;;;2.65;;
59406;SDS011;45208;32.616;-115.472;2022-07-22T02:14:07;12.40;;;2.38;;
59406;SDS011;45208;32.616;-115.472;2022-07-22T02:16:34;16.45;;;2.65;;
59406;SDS011;45208;32.616;-115.472;2022-07-22T02:19:04;21.40;;;3.20;;
59406;SDS011;45208;32.616;-115.472;2022-07-22T02:21:31;14.43;;;3.20;;
59406;SDS011;45208;32.616;-115.472;2022-07-22T02:23:59;14.63;;;2.75;;
59406;SDS011;45208;32.616;-115.472;2022-07-22T02:26:26;11.38;;;2.90;;
59406;SDS011;45208;32.616;-115.472;2022-07-22T02:28:52;11.68;;;2.60;;
59406;SDS011;45208;32.616;-115.472;2022-07-22T02:31:21;13.00;;;2.47;;
59406;SDS011;45208;32.616;-115.472;2022-07-22T02:33:49;11.55;;;2.55;;
59406;SDS011;45208;32.616;-115.472;2022-07-22T02:36:16;14.65;;;2.50;;
59406;SDS011;45208;32.616;-115.472;2022-07-22T02:38:44;12.48;;;2.63;;
59406;SDS011;45208;32.616;-115.472;2022-07-22T02:41:11;10.60;;;2.35;;
59406;SDS011;45208;32.616;-115.472;2022-07-22T02:43:47;13.75;;;3.30;;
59406;SDS011;45208;32.616;-115.472;2022-07-22T02:46:14;31.63;;;3.90;;
59406;SDS011;45208;32.616;-115.472;2022-07-22T02:48:41;24.38;;;3.72;;
59406;SDS011;45208;32.616;-115.472;2022-07-22T02:51:12;27.17;;;3.38;;
59406;SDS011;45208;32.616;-115.472;2022-07-22T02:53:40;18.60;;;2.92;;
59406;SDS011;45208;32.616;-115.472;2022-07-22T02:56:06;24.38;;;4.05;;
59406;SDS011;45208;32.616;-115.472;2022-07-22T02:58:34;29.20;;;3.75;;
59406;SDS011;45208;32.616;-115.472;2022-07-22T03:01:01;26.70;;;3.80;;
59406;SDS011;45208;32.616;-115.472;2022-07-22T03:03:31;21.90;;;3.70;;
59406;SDS011;45208;32.616;-115.472;2022-07-22T03:05:58;20.35;;;3.20;;
59406;SDS011;45208;32.616;-115.472;2022-07-22T03:08:37;16.33;;;2.95;;
59406;SDS011;45208;32.616;-115.472;2022-07-22T03:11:05;25.60;;;3.13;;
59406;SDS011;45208;32.616;-115.472;2022-07-22T03:13:32;20.40;;;3.17;;
59406;SDS011;45208;32.616;-115.472;2022-07-22T03:16:00;15.23;;;3.15;;
59406;SDS011;45208;32.616;-115.472;2022-07-22T03:18:27;12.73;;;2.35;;
59406;SDS011;45208;32.616;-115.472;2022-07-22T03:20:54;16.63;;;2.70;;
59406;SDS011;45208;32.616;-115.472;2022-07-22T03:23:20;15.48;;;2.85;;
59406;SDS011;45208;32.616;-115.472;2022-07-22T03:25:47;23.08;;;2.85;;
59406;SDS011;45208;32.616;-115.472;2022-07-22T03:28:14;19.48;;;3.00;;
59406;SDS011;45208;32.616;-115.472;2022-07-22T03:30:41;19.60;;;3.55;;
59406;SDS011;45208;32.616;-115.472;2022-07-22T03:33:08;25.40;;;4.13;;
59406;SDS011;45208;32.616;-115.472;2022-07-22T03:35:39;20.55;;;4.10;;
59406;SDS011;45208;32.616;-115.472;2022-07-22T03:38:06;27.38;;;3.83;;
59406;SDS011;45208;32.616;-115.472;2022-07-22T03:40:34;19.88;;;3.25;;
59406;SDS011;45208;32.616;-115.472;2022-07-22T03:43:02;22.45;;;3.85;;
59406;SDS011;45208;32.616;-115.472;2022-07-22T03:45:30;18.33;;;3.33;;
59406;SDS011;45208;32.616;-115.472;2022-07-22T03:47:58;19.15;;;3.20;;
59406;SDS011;45208;32.616;-115.472;2022-07-22T03:50:28;25.02;;;3.63;;
59406;SDS011;45208;32.616;-115.472;2022-07-22T03:52:54;22.38;;;4.15;;
59406;SDS011;45208;32.616;-115.472;2022-07-22T03:55:21;21.15;;;3.20;;
59406;SDS011;45208;32.616;-115.472;2022-07-22T03:57:51;16.63;;;3.30;;
59406;SDS011;45208;32.616;-115.472;2022-07-22T04:00:29;21.40;;;3.28;;
59406;SDS011;45208;32.616;-115.472;2022-07-22T04:02:57;69.53;;;4.72;;
59406;SDS011;45208;32.616;-115.472;2022-07-22T04:05:44;19.90;;;3.90;;
59406;SDS011;45208;32.616;-115.472;2022-07-22T04:08:13;27.27;;;3.92;;
59406;SDS011;45208;32.616;-115.472;2022-07-22T04:10:40;24.17;;;3.75;;
59406;SDS011;45208;32.616;-115.472;2022-07-22T04:13:07;21.95;;;2.83;;
59406;SDS011;45208;32.616;-115.472;2022-07-22T04:15:48;35.15;;;4.05;;
59406;SDS011;45208;32.616;-115.472;2022-07-22T04:18:14;24.55;;;3.65;;
59406;SDS011;45208;32.616;-115.472;2022-07-22T04:20:44;17.42;;;3.15;;
59406;SDS011;45208;32.616;-115.472;2022-07-22T04:23:21;22.02;;;3.35;;
59406;SDS011;45208;32.616;-115.472;2022-07-22T04:25:55;16.50;;;2.97;;
59406;SDS011;45208;32.616;-115.472;2022-07-22T04:28:22;19.33;;;2.95;;
59406;SDS011;45208;32.616;-115.472;2022-07-22T04:30:49;19.25;;;2.75;;
59406;SDS011;45208;32.616;-115.472;2022-07-22T04:33:16;12.48;;;2.80;;
59406;SDS011;45208;32.616;-115.472;2022-07-22T04:35:42;18.90;;;2.80;;
59406;SDS011;45208;32.616;-115.472;2022-07-22T04:38:16;15.73;;;3.03;;
59406;SDS011;45208;32.616;-115.472;2022-07-22T04:40:54;12.05;;;3.20;;
59406;SDS011;45208;32.616;-115.472;2022-07-22T04:43:23;15.82;;;3.35;;
59406;SDS011;45208;32.616;-115.472;2022-07-22T04:45:50;28.65;;;3.95;;
59406;SDS011;45208;32.616;-115.472;2022-07-22T04:48:17;18.63;;;3.50;;
59406;SDS011;45208;32.616;-115.472;2022-07-22T04:50:45;16.50;;;3.30;;
59406;SDS011;45208;32.616;-115.472;2022-07-22T04:53:12;18.65;;;2.72;;
59406;SDS011;45208;32.616;-115.472;2022-07-22T04:55:39;17.35;;;2.88;;
59406;SDS011;45208;32.616;-115.472;2022-07-22T04:58:07;15.18;;;2.53;;
59406;SDS011;45208;32.616;-115.472;2022-07-22T05:00:33;12.23;;;2.60;;
59406;SDS011;45208;32.616;-115.472;2022-07-22T05:03:00;16.30;;;2.78;;
59406;SDS011;45208;32.616;-115.472;2022-07-22T05:05:27;15.45;;;2.80;;
59406;SDS011;45208;32.616;-115.472;2022-07-22T05:07:54;20.17;;;3.00;;
59406;SDS011;45208;32.616;-115.472;2022-07-22T05:10:21;25.63;;;2.60;;
59406;SDS011;45208;32.616;-115.472;2022-07-22T05:12:48;10.73;;;2.28;;
59406;SDS011;45208;32.616;-115.472;2022-07-22T05:15:15;10.52;;;2.70;;
59406;SDS011;45208;32.616;-115.472;2022-07-22T05:17:42;8.45;;;2.50;;
59406;SDS011;45208;32.616;-115.472;2022-07-22T05:20:17;15.00;;;2.97;;
59406;SDS011;45208;32.616;-115.472;2022-07-22T05:22:44;16.20;;;2.80;;
59406;SDS011;45208;32.616;-115.472;2022-07-22T05:25:16;10.52;;;2.40;;
59406;SDS011;45208;32.616;-115.472;2022-07-22T05:27:50;11.02;;;2.47;;
59406;SDS011;45208;32.616;-115.472;2022-07-22T05:30:26;13.00;;;3.10;;
59406;SDS011;45208;32.616;-115.472;2022-07-22T05:32:53;10.52;;;3.22;;
59406;SDS011;45208;32.616;-115.472;2022-07-22T05:35:49;16.30;;;2.60;;
59406;SDS011;45208;32.616;-115.472;2022-07-22T05:38:17;10.50;;;2.03;;
59406;SDS011;45208;32.616;-115.472;2022-07-22T05:40:44;10.25;;;2.60;;
59406;SDS011;45208;32.616;-115.472;2022-07-22T05:43:11;7.75;;;2.55;;
59406;SDS011;45208;32.616;-115.472;2022-07-22T05:45:38;19.08;;;3.30;;
59406;SDS011;45208;32.616;-115.472;2022-07-22T05:48:05;17.23;;;3.80;;
59406;SDS011;45208;32.616;-115.472;2022-07-22T05:50:33;14.50;;;3.45;;
59406;SDS011;45208;32.616;-115.472;2022-07-22T05:53:01;14.30;;;3.35;;
59406;SDS011;45208;32.616;-115.472;2022-07-22T05:55:28;11.30;;;3.50;;
59406;SDS011;45208;32.616;-115.472;2022-07-22T05:57:55;14.80;;;3.42;;
59406;SDS011;45208;32.616;-115.472;2022-07-22T06:00:22;9.65;;;2.70;;
59406;SDS011;45208;32.616;-115.472;2022-07-22T06:02:49;16.08;;;2.50;;
59406;SDS011;45208;32.616;-115.472;2022-07-22T06:05:19;12.48;;;2.55;;
59406;SDS011;45208;32.616;-115.472;2022-07-22T06:07:47;14.18;;;2.60;;
59406;SDS011;45208;32.616;-115.472;2022-07-22T06:10:24;13.85;;;2.38;;
59406;SDS011;45208;32.616;-115.472;2022-07-22T06:12:51;13.88;;;2.17;;
59406;SDS011;45208;32.616;-115.472;2022-07-22T06:15:17;9.80;;;2.30;;
59406;SDS011;45208;32.616;-115.472;2022-07-22T06:17:45;12.93;;;2.38;;
59406;SDS011;45208;32.616;-115.472;2022-07-22T06:20:12;15.60;;;2.55;;
59406;SDS011;45208;32.616;-115.472;2022-07-22T06:22:39;17.85;;;2.90;;
59406;SDS011;45208;32.616;-115.472;2022-07-22T06:25:07;14.73;;;3.05;;
59406;SDS011;45208;32.616;-115.472;2022-07-22T06:27:34;16.30;;;3.38;;
59406;SDS011;45208;32.616;-115.472;2022-07-22T06:30:01;16.05;;;3.00;;
59406;SDS011;45208;32.616;-115.472;2022-07-22T06:32:29;18.08;;;3.17;;
59406;SDS011;45208;32.616;-115.472;2022-07-22T06:34:56;17.80;;;2.75;;
59406;SDS011;45208;32.616;-115.472;2022-07-22T06:37:23;10.20;;;2.08;;
59406;SDS011;45208;32.616;-115.472;2022-07-22T06:39:50;14.15;;;2.85;;
59406;SDS011;45208;32.616;-115.472;2022-07-22T06:42:29;11.27;;;2.50;;
59406;SDS011;45208;32.616;-115.472;2022-07-22T06:45:14;18.05;;;2.65;;
59406;SDS011;45208;32.616;-115.472;2022-07-22T06:48:00;6.85;;;1.92;;
59406;SDS011;45208;32.616;-115.472;2022-07-22T06:50:29;8.15;;;2.30;;
59406;SDS011;45208;32.616;-115.472;2022-07-22T06:52:58;9.93;;;2.38;;
59406;SDS011;45208;32.616;-115.472;2022-07-22T06:55:25;12.25;;;2.63;;
59406;SDS011;45208;32.616;-115.472;2022-07-22T06:58:00;7.85;;;2.50;;
59406;SDS011;45208;32.616;-115.472;2022-07-22T07:00:27;8.10;;;2.17;;
59406;SDS011;45208;32.616;-115.472;2022-07-22T07:03:20;8.43;;;2.40;;
59406;SDS011;45208;32.616;-115.472;2022-07-22T07:05:51;15.55;;;7.07;;
59406;SDS011;45208;32.616;-115.472;2022-07-22T07:08:18;12.82;;;4.80;;
59406;SDS011;45208;32.616;-115.472;2022-07-22T07:10:45;11.88;;;3.55;;
59406;SDS011;45208;32.616;-115.472;2022-07-22T07:13:14;11.43;;;3.40;;
59406;SDS011;45208;32.616;-115.472;2022-07-22T07:15:42;10.60;;;3.05;;
59406;SDS011;45208;32.616;-115.472;2022-07-22T07:18:09;13.00;;;3.22;;
59406;SDS011;45208;32.616;-115.472;2022-07-22T07:20:37;9.40;;;2.97;;
59406;SDS011;45208;32.616;-115.472;2022-07-22T07:23:07;12.18;;;3.20;;
59406;SDS011;45208;32.616;-115.472;2022-07-22T07:25:38;11.25;;;3.30;;
59406;SDS011;45208;32.616;-115.472;2022-07-22T07:28:05;10.93;;;2.83;;
59406;SDS011;45208;32.616;-115.472;2022-07-22T07:30:51;11.75;;;3.10;;
59406;SDS011;45208;32.616;-115.472;2022-07-22T07:33:18;17.10;;;4.10;;
59406;SDS011;45208;32.616;-115.472;2022-07-22T07:35:45;17.02;;;3.53;;
59406;SDS011;45208;32.616;-115.472;2022-07-22T07:38:14;14.05;;;2.83;;
59406;SDS011;45208;32.616;-115.472;2022-07-22T07:40:42;8.65;;;2.58;;
59406;SDS011;45208;32.616;-115.472;2022-07-22T07:43:11;10.98;;;2.70;;
59406;SDS011;45208;32.616;-115.472;2022-07-22T07:45:37;10.98;;;2.78;;
59406;SDS011;45208;32.616;-115.472;2022-07-22T07:48:05;7.63;;;2.25;;
59406;SDS011;45208;32.616;-115.472;2022-07-22T07:50:32;14.73;;;2.38;;
59406;SDS011;45208;32.616;-115.472;2022-07-22T07:53:01;8.35;;;2.30;;
59406;SDS011;45208;32.616;-115.472;2022-07-22T07:55:28;7.68;;;2.20;;
59406;SDS011;45208;32.616;-115.472;2022-07-22T07:57:56;9.43;;;2.75;;
59406;SDS011;45208;32.616;-115.472;2022-07-22T08:00:25;9.73;;;2.40;;
59406;SDS011;45208;32.616;-115.472;2022-07-22T08:03:01;12.40;;;2.33;;
59406;SDS011;45208;32.616;-115.472;2022-07-22T08:05:31;11.07;;;2.55;;
59406;SDS011;45208;32.616;-115.472;2022-07-22T08:07:59;12.18;;;2.20;;
59406;SDS011;45208;32.616;-115.472;2022-07-22T08:10:27;11.45;;;2.22;;
59406;SDS011;45208;32.616;-115.472;2022-07-22T08:13:02;4.82;;;1.90;;
59406;SDS011;45208;32.616;-115.472;2022-07-22T08:15:58;7.93;;;1.90;;
59406;SDS011;45208;32.616;-115.472;2022-07-22T08:18:26;11.20;;;2.38;;
59406;SDS011;45208;32.616;-115.472;2022-07-22T08:20:53;6.78;;;2.10;;
59406;SDS011;45208;32.616;-115.472;2022-07-22T08:23:33;9.32;;;2.42;;
59406;SDS011;45208;32.616;-115.472;2022-07-22T08:26:01;8.07;;;2.70;;
59406;SDS011;45208;32.616;-115.472;2022-07-22T08:28:28;14.20;;;2.63;;
59406;SDS011;45208;32.616;-115.472;2022-07-22T08:30:56;8.00;;;2.30;;
59406;SDS011;45208;32.616;-115.472;2022-07-22T08:33:22;8.05;;;1.98;;
59406;SDS011;45208;32.616;-115.472;2022-07-22T08:35:49;8.02;;;2.35;;
59406;SDS011;45208;32.616;-115.472;2022-07-22T08:38:16;12.18;;;2.28;;
59406;SDS011;45208;32.616;-115.472;2022-07-22T08:40:44;7.93;;;2.40;;
59406;SDS011;45208;32.616;-115.472;2022-07-22T08:43:11;8.57;;;2.55;;
59406;SDS011;45208;32.616;-115.472;2022-07-22T08:45:39;14.75;;;2.67;;
59406;SDS011;45208;32.616;-115.472;2022-07-22T08:48:07;8.70;;;2.30;;
59406;SDS011;45208;32.616;-115.472;2022-07-22T08:50:40;9.65;;;2.17;;
59406;SDS011;45208;32.616;-115.472;2022-07-22T08:53:29;12.13;;;2.50;;
59406;SDS011;45208;32.616;-115.472;2022-07-22T08:56:03;16.17;;;2.63;;
59406;SDS011;45208;32.616;-115.472;2022-07-22T08:58:30;14.35;;;2.42;;
59406;SDS011;45208;32.616;-115.472;2022-07-22T09:01:05;11.18;;;2.22;;
59406;SDS011;45208;32.616;-115.472;2022-07-22T09:03:47;12.48;;;2.50;;
59406;SDS011;45208;32.616;-115.472;2022-07-22T09:06:20;10.38;;;2.60;;
59406;SDS011;45208;32.616;-115.472;2022-07-22T09:14:22;9.60;;;3.10;;
59406;SDS011;45208;32.616;-115.472;2022-07-22T09:16:57;15.70;;;3.63;;
59406;SDS011;45208;32.616;-115.472;2022-07-22T09:19:32;14.40;;;3.63;;
59406;SDS011;45208;32.616;-115.472;2022-07-22T09:22:37;21.30;;;4.20;;
59406;SDS011;45208;32.616;-115.472;2022-07-22T09:25:16;20.33;;;5.28;;
59406;SDS011;45208;32.616;-115.472;2022-07-22T09:28:22;26.80;;;6.38;;
59406;SDS011;45208;32.616;-115.472;2022-07-22T09:31:09;26.35;;;6.13;;
59406;SDS011;45208;32.616;-115.472;2022-07-22T09:33:53;31.50;;;7.60;;
59406;SDS011;45208;32.616;-115.472;2022-07-22T09:36:22;29.50;;;6.80;;
59406;SDS011;45208;32.616;-115.472;2022-07-22T09:38:51;29.60;;;7.70;;
59406;SDS011;45208;32.616;-115.472;2022-07-22T09:41:18;33.30;;;7.40;;
59406;SDS011;45208;32.616;-115.472;2022-07-22T09:43:45;25.63;;;7.35;;
59406;SDS011;45208;32.616;-115.472;2022-07-22T09:46:13;37.42;;;7.10;;
59406;SDS011;45208;32.616;-115.472;2022-07-22T09:49:05;39.97;;;7.70;;
59406;SDS011;45208;32.616;-115.472;2022-07-22T09:51:40;38.65;;;8.00;;
59406;SDS011;45208;32.616;-115.472;2022-07-22T09:54:17;33.30;;;7.63;;
59406;SDS011;45208;32.616;-115.472;2022-07-22T09:56:45;29.92;;;7.65;;
59406;SDS011;45208;32.616;-115.472;2022-07-22T09:59:16;27.85;;;8.18;;
59406;SDS011;45208;32.616;-115.472;2022-07-22T10:01:51;35.70;;;8.82;;
59406;SDS011;45208;32.616;-115.472;2022-07-22T10:04:21;25.23;;;7.85;;
59406;SDS011;45208;32.616;-115.472;2022-07-22T10:06:51;25.65;;;6.93;;
59406;SDS011;45208;32.616;-115.472;2022-07-22T10:09:23;34.47;;;7.85;;
59406;SDS011;45208;32.616;-115.472;2022-07-22T10:11:51;25.45;;;7.30;;
59406;SDS011;45208;32.616;-115.472;2022-07-22T10:14:22;32.15;;;7.32;;
59406;SDS011;45208;32.616;-115.472;2022-07-22T10:16:53;32.13;;;7.53;;
59406;SDS011;45208;32.616;-115.472;2022-07-22T10:19:20;32.35;;;8.32;;
59406;SDS011;45208;32.616;-115.472;2022-07-22T10:21:47;28.15;;;7.82;;
59406;SDS011;45208;32.616;-115.472;2022-07-22T10:24:14;27.25;;;8.60;;
59406;SDS011;45208;32.616;-115.472;2022-07-22T10:26:56;23.92;;;8.55;;
59406;SDS011;45208;32.616;-115.472;2022-07-22T10:29:40;27.70;;;8.20;;
59406;SDS011;45208;32.616;-115.472;2022-07-22T10:34:43;30.90;;;9.02;;
59406;SDS011;45208;32.616;-115.472;2022-07-22T10:53:10;37.35;;;9.30;;
59406;SDS011;45208;32.616;-115.472;2022-07-22T10:56:05;27.20;;;8.60;;
59406;SDS011;45208;32.616;-115.472;2022-07-22T10:58:40;29.50;;;8.93;;
59406;SDS011;45208;32.616;-115.472;2022-07-22T11:01:10;34.08;;;8.55;;
59406;SDS011;45208;32.616;-115.472;2022-07-22T11:03:39;31.67;;;8.70;;
59406;SDS011;45208;32.616;-115.472;2022-07-22T11:08:57;29.42;;;7.85;;
59406;SDS011;45208;32.616;-115.472;2022-07-22T11:11:40;31.98;;;8.30;;
59406;SDS011;45208;32.616;-115.472;2022-07-22T11:16:45;32.33;;;8.20;;
59406;SDS011;45208;32.616;-115.472;2022-07-22T11:19:13;28.17;;;7.85;;
59406;SDS011;45208;32.616;-115.472;2022-07-22T11:21:41;26.08;;;8.43;;
59406;SDS011;45208;32.616;-115.472;2022-07-22T11:24:07;30.27;;;7.65;;
59406;SDS011;45208;32.616;-115.472;2022-07-22T11:31:51;28.45;;;8.07;;
59406;SDS011;45208;32.616;-115.472;2022-07-22T11:34:18;24.95;;;7.93;;
59406;SDS011;45208;32.616;-115.472;2022-07-22T11:36:47;25.27;;;8.75;;
59406;SDS011;45208;32.616;-115.472;2022-07-22T11:39:17;31.80;;;9.48;;
59406;SDS011;45208;32.616;-115.472;2022-07-22T11:41:46;29.60;;;8.32;;
59406;SDS011;45208;32.616;-115.472;2022-07-22T11:44:16;23.42;;;8.95;;
59406;SDS011;45208;32.616;-115.472;2022-07-22T11:46:47;27.05;;;12.80;;
59406;SDS011;45208;32.616;-115.472;2022-07-22T11:49:15;32.17;;;15.98;;
59406;SDS011;45208;32.616;-115.472;2022-07-22T11:51:44;34.85;;;12.38;;
59406;SDS011;45208;32.616;-115.472;2022-07-22T11:54:11;42.60;;;20.45;;
59406;SDS011;45208;32.616;-115.472;2022-07-22T11:56:38;43.72;;;22.80;;
59406;SDS011;45208;32.616;-115.472;2022-07-22T11:59:06;52.55;;;27.63;;
59406;SDS011;45208;32.616;-115.472;2022-07-22T12:01:36;51.20;;;29.58;;
59406;SDS011;45208;32.616;-115.472;2022-07-22T12:04:07;56.63;;;30.55;;
59406;SDS011;45208;32.616;-115.472;2022-07-22T12:06:36;53.25;;;29.33;;
59406;SDS011;45208;32.616;-115.472;2022-07-22T12:09:14;48.00;;;28.80;;
59406;SDS011;45208;32.616;-115.472;2022-07-22T12:11:55;48.47;;;27.85;;
59406;SDS011;45208;32.616;-115.472;2022-07-22T12:14:26;45.38;;;26.77;;
59406;SDS011;45208;32.616;-115.472;2022-07-22T12:19:38;38.58;;;23.38;;
59406;SDS011;45208;32.616;-115.472;2022-07-22T12:22:10;33.60;;;20.05;;
59406;SDS011;45208;32.616;-115.472;2022-07-22T12:24:42;37.50;;;18.05;;
59406;SDS011;45208;32.616;-115.472;2022-07-22T12:27:14;33.65;;;14.70;;
59406;SDS011;45208;32.616;-115.472;2022-07-22T12:29:43;23.30;;;11.80;;
59406;SDS011;45208;32.616;-115.472;2022-07-22T12:32:15;20.67;;;8.93;;
59406;SDS011;45208;32.616;-115.472;2022-07-22T12:34:55;17.30;;;7.10;;
59406;SDS011;45208;32.616;-115.472;2022-07-22T12:40:24;18.13;;;5.78;;
59406;SDS011;45208;32.616;-115.472;2022-07-22T12:45:33;13.23;;;4.50;;
59406;SDS011;45208;32.616;-115.472;2022-07-22T12:50:33;17.15;;;4.80;;
59406;SDS011;45208;32.616;-115.472;2022-07-22T12:53:09;19.85;;;5.50;;
59406;SDS011;45208;32.616;-115.472;2022-07-22T12:55:39;18.00;;;5.45;;
59406;SDS011;45208;32.616;-115.472;2022-07-22T12:58:08;13.10;;;4.75;;
59406;SDS011;45208;32.616;-115.472;2022-07-22T13:00:37;15.90;;;5.30;;
59406;SDS011;45208;32.616;-115.472;2022-07-22T13:03:06;14.07;;;5.40;;
59406;SDS011;45208;32.616;-115.472;2022-07-22T13:05:32;13.63;;;4.85;;
59406;SDS011;45208;32.616;-115.472;2022-07-22T13:08:01;18.38;;;4.10;;
59406;SDS011;45208;32.616;-115.472;2022-07-22T13:10:28;20.65;;;4.90;;
59406;SDS011;45208;32.616;-115.472;2022-07-22T13:12:56;12.82;;;4.70;;
59406;SDS011;45208;32.616;-115.472;2022-07-22T13:15:22;19.63;;;4.05;;
59406;SDS011;45208;32.616;-115.472;2022-07-22T13:17:50;15.68;;;4.05;;
59406;SDS011;45208;32.616;-115.472;2022-07-22T13:20:17;16.42;;;4.00;;
59406;SDS011;45208;32.616;-115.472;2022-07-22T13:22:45;18.95;;;4.63;;
59406;SDS011;45208;32.616;-115.472;2022-07-22T13:25:12;18.33;;;4.82;;
59406;SDS011;45208;32.616;-115.472;2022-07-22T13:27:39;24.85;;;4.70;;
59406;SDS011;45208;32.616;-115.472;2022-07-22T13:30:06;27.33;;;5.03;;
59406;SDS011;45208;32.616;-115.472;2022-07-22T13:32:33;25.48;;;4.82;;
59406;SDS011;45208;32.616;-115.472;2022-07-22T13:35:00;22.20;;;5.40;;
59406;SDS011;45208;32.616;-115.472;2022-07-22T13:37:27;38.92;;;6.10;;
59406;SDS011;45208;32.616;-115.472;2022-07-22T13:39:53;23.52;;;4.68;;
59406;SDS011;45208;32.616;-115.472;2022-07-22T13:42:20;18.77;;;5.40;;
59406;SDS011;45208;32.616;-115.472;2022-07-22T13:44:47;29.85;;;4.68;;
59406;SDS011;45208;32.616;-115.472;2022-07-22T13:47:17;19.85;;;4.68;;
59406;SDS011;45208;32.616;-115.472;2022-07-22T13:49:44;21.60;;;4.93;;
59406;SDS011;45208;32.616;-115.472;2022-07-22T13:52:12;27.58;;;4.70;;
59406;SDS011;45208;32.616;-115.472;2022-07-22T13:54:39;27.65;;;5.00;;
59406;SDS011;45208;32.616;-115.472;2022-07-22T13:57:06;19.85;;;4.15;;
59406;SDS011;45208;32.616;-115.472;2022-07-22T13:59:35;19.80;;;4.45;;
59406;SDS011;45208;32.616;-115.472;2022-07-22T14:02:03;23.38;;;4.72;;
59406;SDS011;45208;32.616;-115.472;2022-07-22T14:04:31;28.92;;;5.50;;
59406;SDS011;45208;32.616;-115.472;2022-07-22T14:06:57;19.25;;;4.80;;
59406;SDS011;45208;32.616;-115.472;2022-07-22T14:09:24;25.17;;;5.72;;
59406;SDS011;45208;32.616;-115.472;2022-07-22T14:11:51;26.30;;;4.45;;
59406;SDS011;45208;32.616;-115.472;2022-07-22T14:14:18;24.83;;;4.93;;
59406;SDS011;45208;32.616;-115.472;2022-07-22T14:16:44;44.88;;;5.50;;
59406;SDS011;45208;32.616;-115.472;2022-07-22T14:19:12;36.92;;;4.78;;
59406;SDS011;45208;32.616;-115.472;2022-07-22T14:21:41;22.63;;;4.13;;
59406;SDS011;45208;32.616;-115.472;2022-07-22T14:24:09;23.42;;;4.60;;
59406;SDS011;45208;32.616;-115.472;2022-07-22T14:26:37;20.13;;;3.97;;
59406;SDS011;45208;32.616;-115.472;2022-07-22T14:29:05;29.48;;;4.82;;
59406;SDS011;45208;32.616;-115.472;2022-07-22T14:31:32;25.55;;;5.05;;
59406;SDS011;45208;32.616;-115.472;2022-07-22T14:33:59;26.63;;;4.32;;
59406;SDS011;45208;32.616;-115.472;2022-07-22T14:36:27;24.08;;;4.70;;
59406;SDS011;45208;32.616;-115.472;2022-07-22T14:38:53;28.15;;;5.30;;
59406;SDS011;45208;32.616;-115.472;2022-07-22T14:41:20;23.45;;;5.22;;
59406;SDS011;45208;32.616;-115.472;2022-07-22T14:43:48;42.70;;;5.10;;
59406;SDS011;45208;32.616;-115.472;2022-07-22T14:46:14;36.13;;;6.05;;
59406;SDS011;45208;32.616;-115.472;2022-07-22T14:48:41;43.72;;;6.30;;
59406;SDS011;45208;32.616;-115.472;2022-07-22T14:51:09;37.08;;;5.63;;
59406;SDS011;45208;32.616;-115.472;2022-07-22T14:53:35;26.10;;;5.32;;
59406;SDS011;45208;32.616;-115.472;2022-07-22T14:56:02;30.42;;;4.93;;
59406;SDS011;45208;32.616;-115.472;2022-07-22T14:58:29;35.10;;;5.88;;